Nearby METAR Reports

 

KTAN - Taunton, Massachusetts, USA
Distance from station: W 5mi, 8km
Updated: 12/31/1969 7:00pm
NOT Current
unable to load KTAN data RC=
unable to load KTAN data RC=
 
KPYM - Plymouth, Massachusetts, USA
Distance from station: ENE 10mi, 16km
Updated: 11/19/2018 11:52pm
Light rain, Overcast
Light rain, Overcast
 Wind from NNE
Wind: NNE 6 mph , 9 km/h
Temperature: 41°F , 5°C
Wind Chill: 37°F , 3°C
Dew Point: 37°F , 3°C
Humidity: 87%
Barometer: 29.99 inHg , 1015.6 hPa
Summary: Light rain
Clouds: Overcast
Visibility: 10 miles , 16 km
Cloud details: Overcast 1500 ft
2018/11/20 04:52 KPYM 200452Z AUTO 02005KT 10SM -RA OVC015 05/03 A2999 RMK AO2 SLP155 P0000 T00500033 401060033
 
KEWB - New Bedford, Massachusetts, USA
Distance from station: S 14mi, 23km
Updated: 11/20/2018 12:14am
Overcast
Overcast
 Wind from NNE
Wind: NNE 5 mph , 7 km/h
Temperature: 41°F , 5°C
Wind Chill: 38°F , 3°C
Dew Point: 39°F , 4°C
Humidity: 93%
Barometer: 29.96 inHg , 1014.6 hPa
Clouds: Overcast
Visibility: 10 miles , 16 km
Cloud details: Few Clouds 900 ft
Mostly cloudy 1400 ft
Overcast 8500 ft
2018/11/20 05:14 KEWB 200514Z AUTO 03004KT 10SM FEW009 BKN014 OVC085 05/04 A2996 RMK AO2 T00500044
KGHG - Marshfield, Massachusetts, USA
Distance from station: NE 20mi, 31km
Updated: 11/20/2018 12:15am
Overcast
Overcast
 Wind from varies
Wind: varies 5 mph , 7 km/h
Temperature: 43°F , 6°C
Wind Chill: 40°F , 4°C
Dew Point: 37°F , 3°C
Humidity: 81%
Barometer: 29.98 inHg , 1015.2 hPa
Clouds: Overcast
Visibility: 10 miles , 16 km
Cloud details: Overcast 1200 ft
2018/11/20 05:15 KGHG 200515Z AUTO VRB04KT 10SM OVC012 06/03 A2998 RMK AO2
 
KOWD - Norwood, Massachusetts, USA
Distance from station: NNW 24mi, 39km
Updated: 11/20/2018 12:21am
Mist, Overcast
Mist, Overcast
 Wind from calm
Wind: Calm
Temperature: 39°F , 4°C
Dew Point: 37°F , 3°C
Humidity: 93%
Barometer: 29.99 inHg , 1015.6 hPa
Summary: Mist
Clouds: Overcast
Visibility: 5 miles , 8 km
Cloud details: Partly cloudy 600 ft
Overcast 2500 ft
2018/11/20 05:21 KOWD 200521Z AUTO 00000KT 5SM BR SCT006 OVC025 04/03 A2999 RMK AO2 T00440033
KMQE - East Milton, Massachusetts, USA
Distance from station: NNW 25mi, 40km
Updated: 11/19/2018 11:56pm

 Wind from N
Wind: N 7 mph , 11 km/h
Temperature: 36°F , 2°C
Wind Chill: 30°F , -1°C
Dew Point: 36°F , 2°C
Humidity: 100%
Barometer: 29.96 inHg , 1014.6 hPa
2018/11/20 04:56 KMQE 200456Z AUTO 01006KT 02/02 A2996 RMK AO1 SLP163 P0001 T00170017 400280006
 
KFMH - Falmouth/Otis Ab, Massachusetts, USA
Distance from station: SE 27mi, 44km
Updated: 11/20/2018 12:15am
Overcast
Overcast
 Wind from NE
Wind: NE 9 mph , 15 km/h
Temperature: 43°F , 6°C
Wind Chill: 38°F , 3°C
Dew Point: 41°F , 5°C
Humidity: 93%
Barometer: 29.98 inHg , 1015.2 hPa
Clouds: Overcast
Visibility: 10 miles , 16 km
Cloud details: Overcast 900 ft
2018/11/20 05:15 KFMH 200515Z AUTO 04008KT 10SM OVC009 06/05 A2998 RMK AO2
KPVD - Providence/Green, Rhode Island, USA
Distance from station: WSW 29mi, 47km
Updated: 11/19/2018 11:51pm
Overcast
Overcast
 Wind from NNE
Wind: NNE 9 mph , 15 km/h
Temperature: 39°F , 4°C
Wind Chill: 33°F , 1°C
Dew Point: 36°F , 2°C
Humidity: 87%
Barometer: 29.99 inHg , 1015.6 hPa
Clouds: Overcast
Visibility: 10 miles , 16 km
Cloud details: Overcast 2000 ft
2018/11/20 04:51 KPVD 200451Z 03008KT 10SM OVC020 04/02 A2999 RMK AO2 RAB0356E14 SLP154 P0000 T00440022 400830033
 
KSFZ - Pawtucket, Rhode Island, USA
Distance from station: W 30mi, 48km
Updated: 11/19/2018 11:56pm
Mist, Overcast
Mist, Overcast
 Wind from NNE
Wind: NNE 6 mph , 9 km/h
Temperature: 37°F , 3°C
Wind Chill: 32°F , 0°C
Dew Point: 36°F , 2°C
Humidity: 93%
Barometer: 29.98 inHg , 1015.2 hPa
Summary: Mist
Clouds: Overcast
Visibility: 6 miles , 10 km
Cloud details: Partly cloudy 300 ft
Overcast 1800 ft
2018/11/20 04:56 KSFZ 200456Z AUTO 03005KT 6SM BR SCT003 OVC018 03/02 A2998 RMK AO2 UPE55 SLP102 P0000 T00280022 400440017
KUUU - Newport, Rhode Island, USA
Distance from station: SW 31mi, 50km
Updated: 11/19/2018 11:53pm
Overcast
Overcast
 Wind from NNE
Wind: NNE 12 mph , 19 km/h
Temperature: 41°F , 5°C
Wind Chill: 34°F , 1°C
Dew Point: 37°F , 3°C
Humidity: 87%
Barometer: 29.96 inHg , 1014.6 hPa
Clouds: Overcast
Visibility: 9 miles , 14 km
Cloud details: Few Clouds 1700 ft
Overcast 8500 ft
2018/11/20 04:53 KUUU 200453Z AUTO 02010KT 9SM FEW017 OVC085 05/03 A2996 RMK AO2 SLP143 T00500033 401060039 $
 
KOQU - N. Kingston/Quon, Rhode Island, USA
Distance from station: SW 32mi, 52km
Updated: 11/19/2018 10:50pm
NOT Current
Overcast
Overcast
 Wind from NNE
Wind: NNE 14 mph , 22 km/h
Temperature: 41°F , 5°C
Wind Chill: 33°F , 1°C
Dew Point: 36°F , 2°C
Humidity: 81%
Barometer: 29.99 inHg , 1015.6 hPa
Clouds: Overcast
Visibility: 10 miles , 16 km
Cloud details: Partly cloudy 2000 ft
Overcast 10000 ft
2018/11/20 03:50 KOQU 200350Z 03012KT 10SM SCT020 OVC100 05/02 A2999 RMK LAST
KBOS - Boston, Massachusetts, USA
Distance from station: N 33mi, 54km
Updated: 11/19/2018 11:54pm
Mist, Overcast
Mist, Overcast
 Wind from N
Wind: N 7 mph , 11 km/h
Temperature: 39°F , 4°C
Wind Chill: 34°F , 1°C
Dew Point: 36°F , 2°C
Humidity: 87%
Barometer: 30.01 inHg , 1016.3 hPa
Summary: Mist
Clouds: Overcast
Visibility: 6 miles , 10 km
Cloud details: Overcast 3200 ft
2018/11/20 04:54 KBOS 200454Z 01006KT 6SM BR OVC032 04/02 A3001 RMK AO2 RAE25 SLP161 P0000 T00390017 400500022
 
KHYA - Hyannis, Massachusetts, USA
Distance from station: ESE 37mi, 59km
Updated: 11/19/2018 11:56pm
Overcast
Overcast
 Wind from N
Wind: N 7 mph , 11 km/h
Temperature: 46°F , 8°C
Wind Chill: 42°F , 6°C
Dew Point: 43°F , 6°C
Humidity: 87%
Barometer: 29.97 inHg , 1014.9 hPa
Clouds: Overcast
Visibility: 10 miles , 16 km
Cloud details: Overcast 800 ft
2018/11/20 04:56 KHYA 200456Z AUTO 01006KT 10SM OVC008 08/06 A2997 RMK AO2 SLP148 T00780061 401330011
KMVY - Marthas Vineyard, Massachusetts, USA
Distance from station: SSE 37mi, 60km
Updated: 11/19/2018 11:53pm
Overcast
Overcast
 Wind from NNE
Wind: NNE 8 mph , 13 km/h
Temperature: 46°F , 8°C
Wind Chill: 42°F , 6°C
Dew Point: 45°F , 7°C
Humidity: 93%
Barometer: 29.97 inHg , 1014.9 hPa
Clouds: Overcast
Visibility: 10 miles , 16 km
Cloud details: Few Clouds 800 ft
Overcast 1800 ft
2018/11/20 04:53 KMVY 200453Z AUTO 02007KT 10SM FEW008 OVC018 08/07 A2997 RMK AO2 SLP147 T00780067 401330006
 
KPVC - Provincetown, Massachusetts, USA
Distance from station: ENE 38mi, 61km
Updated: 11/19/2018 11:56pm
Light rain, Overcast
Light rain, Overcast
 Wind from NNE
Wind: NNE 10 mph , 17 km/h
Temperature: 45°F , 7°C
Wind Chill: 40°F , 4°C
Dew Point: 39°F , 4°C
Humidity: 81%
Barometer: 30.00 inHg , 1015.9 hPa
Summary: Light rain
Clouds: Overcast
Visibility: 10 miles , 16 km
Cloud details: Overcast 1100 ft
2018/11/20 04:56 KPVC 200456Z AUTO 02009KT 10SM -RA OVC011 07/04 A3000 RMK AO2 RAB20 SLP157 P0000 T00670039 401110044
KBED - Bedford, Massachusetts, USA
Distance from station: NNW 44mi, 72km
Updated: 11/20/2018 12:11am
Light rain, Mist, Overcast
Light rain, Mist, Overcast
 Wind from calm
Wind: Calm
Temperature: 36°F , 2°C
Dew Point: 34°F , 1°C
Humidity: 93%
Barometer: 29.99 inHg , 1015.6 hPa
Summary: Light rain, Mist
Clouds: Overcast
Visibility: 4 miles , 6 km
Cloud details: Few Clouds 300 ft
Overcast 2700 ft
2018/11/20 05:11 KBED 200511Z AUTO 00000KT 4SM -RA BR FEW003 OVC027 02/01 A2999 RMK AO2 RAB0459 P0000 T00220011
 
KBVY - Beverly, Massachusetts, USA
Distance from station: 0 48mi, 77km
Updated: 11/20/2018 12:18am
Overcast
Overcast
 Wind from N
Wind: N 5 mph , 7 km/h
Temperature: 36°F , 2°C
Wind Chill: 32°F , 0°C
Dew Point: 34°F , 1°C
Humidity: 93%
Barometer: 29.98 inHg , 1015.2 hPa
Clouds: Overcast
Visibility: 7 miles , 11 km
Cloud details: Partly cloudy 2800 ft
Overcast 3800 ft
2018/11/20 05:18 KBVY 200518Z AUTO 35004KT 7SM SCT028 OVC038 02/01 A2998 RMK AO2 T00220006
KCQX - Chatham, Massachusetts, USA
Distance from station: ESE 49mi, 80km
Updated: 11/19/2018 11:52pm
Overcast
Overcast
 Wind from N
Wind: N 5 mph , 7 km/h
Temperature: 45°F , 7°C
Wind Chill: 42°F , 6°C
Dew Point: 43°F , 6°C
Humidity: 93%
Barometer: 29.98 inHg , 1015.2 hPa
Clouds: Overcast
Visibility: 10 miles , 16 km
Cloud details: Few Clouds 900 ft
Overcast 1400 ft
2018/11/20 04:52 KCQX 200452Z AUTO 36004KT 10SM FEW009 OVC014 07/06 A2998 RMK AO2 SLP153 T00720056 401220022 $